.
WxDataArchive / Data Records for 2014-08-05
2014-08-04 August 2014 2014-08-06

Data Records for Tuesday, 05 August 2014

Time	Temp	Chill	HIndex	Humid	Dewpt	 Wind 	HiWind	WindDir	Rain 	Barom
-----	----	-----	------	-----	-----	------	------	-------	-----	-----
00:00	67.3	67.3	67.3	85	62.6	0	0	---	0.00	30.028 
00:05	67.3	67.3	67.3	86	63.0	0	0	---	0.00	30.028 
00:10	67.3	67.3	67.3	86	63.0	0	0	---	0.00	30.028 
00:15	67.1	67.1	67.1	87	63.1	0	0	---	0.00	30.026 
00:20	67.1	67.1	67.1	87	63.1	0	0	---	0.00	30.026 
00:25	66.9	66.9	66.9	87	62.9	0	0	---	0.00	30.026 
00:30	66.9	66.9	66.9	88	63.2	0	0	---	0.00	30.022 
00:35	66.8	66.8	66.8	88	63.1	0	0	---	0.00	30.022 
00:40	66.8	66.8	66.8	88	63.1	0	0	---	0.00	30.022 
00:45	66.8	66.8	66.8	88	63.1	0	0	---	0.00	30.018 
00:50	66.8	66.8	66.8	88	63.1	0	0	---	0.00	30.018 
00:55	66.8	66.8	66.8	88	63.1	0	0	---	0.00	30.018 
01:00	66.6	66.6	66.6	88	62.9	0	0	---	0.00	30.022 
01:05	66.6	66.6	66.6	88	62.9	0	0	---	0.00	30.022 
01:10	66.6	66.6	66.6	88	62.9	0	0	---	0.00	30.022 
01:15	66.4	66.4	66.4	88	62.7	0	0	---	0.00	30.025 
01:20	66.4	66.4	66.4	88	62.7	0	0	---	0.00	30.025 
01:25	66.3	66.3	66.3	89	63.0	0	0	---	0.00	30.025 
01:30	66.3	66.3	66.3	89	63.0	0	0	---	0.00	30.013 
01:35	66.1	66.1	66.1	89	62.8	0	0	---	0.00	30.013 
01:40	66.0	66.0	66.0	89	62.7	0	0	---	0.00	30.013 
01:45	66.0	66.0	66.0	89	62.7	0	0	---	0.00	30.014 
01:50	65.8	65.8	65.8	89	62.5	0	0	---	0.00	30.014 
01:55	65.8	65.8	65.8	90	62.8	0	0	---	0.00	30.014 
02:00	65.8	65.8	65.8	90	62.8	0	0	---	0.00	30.010 
02:05	65.6	65.6	65.6	90	62.6	0	0	---	0.00	30.010 
02:10	65.6	65.6	65.6	90	62.6	0	0	---	0.00	30.010 
02:15	65.6	65.6	65.6	90	62.6	0	0	---	0.00	29.999 
02:20	65.5	65.5	65.5	90	62.5	0	0	---	0.00	29.999 
02:25	65.5	65.5	65.5	90	62.5	0	0	---	0.00	29.999 
02:30	65.5	65.5	65.5	91	62.8	0	0	---	0.00	29.996 
02:35	65.3	65.3	65.3	91	62.6	0	0	---	0.00	29.996 
02:40	65.3	65.3	65.3	91	62.6	0	0	---	0.00	29.996 
02:45	65.3	65.3	65.3	91	62.6	0	0	---	0.00	29.999 
02:50	65.2	65.2	65.2	91	62.5	0	0	---	0.00	29.999 
02:55	65.2	65.2	65.2	91	62.5	0	0	---	0.00	29.999 
03:00	65.2	65.2	65.2	91	62.5	0	0	---	0.00	30.002 
03:05	65.0	65.0	65.0	91	62.3	0	0	---	0.00	30.002 
03:10	65.0	65.0	65.0	92	62.6	0	0	---	0.00	30.002 
03:15	64.8	64.8	64.8	92	62.4	0	0	---	0.00	29.999 
03:20	64.8	64.8	64.8	92	62.4	0	0	---	0.00	29.999 
03:25	64.8	64.8	64.8	92	62.4	0	0	---	0.00	29.999 
03:30	64.7	64.7	64.7	92	62.3	0	0	---	0.00	29.995 
03:35	64.7	64.7	64.7	92	62.3	0	0	---	0.00	29.995 
03:40	64.7	64.7	64.7	92	62.3	0	0	---	0.00	29.995 
03:45	64.7	64.7	64.7	92	62.3	0	0	---	0.00	29.999 
03:50	64.7	64.7	64.7	92	62.3	0	0	---	0.00	29.999 
03:55	64.5	64.5	64.5	92	62.1	0	0	---	0.00	29.999 
04:00	64.5	64.5	64.5	92	62.1	0	0	---	0.00	29.999 
04:05	64.5	64.5	64.5	92	62.1	0	0	---	0.00	29.999 
04:10	64.5	64.5	64.5	92	62.1	0	0	---	0.00	29.999 
04:15	64.3	64.3	64.3	92	61.9	0	0	---	0.00	29.996 
04:20	64.3	64.3	64.3	93	62.2	0	0	---	0.00	29.996 
04:25	64.2	64.2	64.2	93	62.1	0	0	---	0.00	29.996 
04:30	64.2	64.2	64.2	93	62.1	0	0	---	0.00	29.997 
04:35	64.2	64.2	64.2	93	62.1	0	0	---	0.00	29.997 
04:40	64.2	64.2	64.2	93	62.1	0	0	---	0.00	29.997 
04:45	64.2	64.2	64.2	93	62.1	0	0	---	0.00	29.995 
04:50	64.2	64.2	64.2	93	62.1	0	0	---	0.00	29.995 
04:55	64.2	64.2	64.2	93	62.1	0	0	---	0.00	29.995 
05:00	64.2	64.2	64.2	93	62.1	0	0	---	0.00	29.995 
05:05	64.2	64.2	64.2	93	62.1	0	0	---	0.00	29.995 
05:10	64.0	64.0	64.0	93	61.9	0	0	---	0.00	29.995 
05:15	64.0	64.0	64.0	93	61.9	0	0	---	0.00	29.995 
05:20	64.0	64.0	64.0	94	62.2	0	0	---	0.00	29.995 
05:25	64.2	64.2	64.2	94	62.4	0	0	---	0.00	29.995 
05:30	64.0	64.0	64.0	93	61.9	0	0	---	0.00	29.995 
05:35	64.0	64.0	64.0	94	62.2	0	0	---	0.00	29.995 
05:40	64.2	64.2	64.2	94	62.4	0	0	---	0.00	29.995 
05:45	64.2	64.2	64.2	94	62.4	0	0	---	0.00	29.996 
05:50	64.2	64.2	64.2	94	62.4	0	0	---	0.00	29.996 
05:55	64.2	64.2	64.2	94	62.4	0	0	---	0.00	29.996 
06:00	64.2	64.2	64.2	94	62.4	0	0	---	0.00	29.997 
06:05	64.2	64.2	64.2	94	62.4	0	0	---	0.00	29.997 
06:10	64.2	64.2	64.2	94	62.4	0	0	---	0.00	29.997 
06:15	64.2	64.2	64.2	94	62.4	0	0	---	0.00	30.006 
06:20	64.0	64.0	64.0	94	62.2	0	0	---	0.00	30.006 
06:25	64.2	64.2	64.2	94	62.4	0	0	---	0.00	30.006 
06:30	64.2	64.2	64.2	94	62.4	0	0	---	0.00	30.013 
06:35	64.5	64.5	64.5	94	62.7	0	1	90	0.00	30.013 
06:40	64.8	64.8	64.8	95	63.3	0	2	90	0.00	30.013 
06:45	65.2	65.2	65.2	94	63.4	0	1	90	0.00	30.018 
06:50	65.3	65.3	65.3	94	63.5	0	1	90	0.00	30.018 
06:55	65.6	65.6	65.6	94	63.8	0	1	90	0.00	30.018 
07:00	65.8	65.8	65.8	93	63.7	0	0	---	0.00	30.017 
07:05	65.8	65.8	65.8	93	63.7	0	1	90	0.00	30.017 
07:10	66.0	66.0	66.0	92	63.6	0	1	90	0.00	30.017 
07:15	66.0	66.0	66.0	92	63.6	0	0	---	0.00	30.018 
07:20	66.1	66.1	66.1	91	63.4	0	0	---	0.00	30.018 
07:25	66.1	66.1	66.1	91	63.4	0	0	---	0.00	30.018 
07:30	66.3	66.3	66.3	90	63.3	0	0	---	0.00	30.017 
07:35	66.3	66.3	66.3	90	63.3	0	1	90	0.00	30.017 
07:40	66.3	66.3	66.3	90	63.3	0	0	---	0.00	30.017 
07:45	66.3	66.3	66.3	89	63.0	0	1	90	0.00	30.028 
07:50	66.4	66.4	66.4	89	63.1	0	0	---	0.00	30.028 
07:55	66.4	66.4	66.4	89	63.1	0	0	---	0.00	30.028 
08:00	66.4	66.4	66.4	89	63.1	0	1	90	0.00	30.024 
08:05	66.6	66.6	66.6	89	63.3	0	0	---	0.00	30.024 
08:10	66.6	66.6	66.6	89	63.3	0	1	90	0.00	30.024 
08:15	66.6	66.6	66.6	88	62.9	0	0	---	0.00	30.024 
08:20	66.6	66.6	66.6	88	62.9	0	0	---	0.00	30.024 
08:25	66.6	66.6	66.6	88	62.9	0	0	---	0.00	30.024 
08:30	66.8	66.8	66.8	88	63.1	0	0	---	0.00	30.023 
08:35	66.8	66.8	66.8	88	63.1	0	0	---	0.00	30.023 
08:40	66.9	66.9	66.9	88	63.2	0	0	---	0.00	30.023 
08:45	66.9	66.9	66.9	88	63.2	0	1	90	0.00	30.030 
08:50	67.1	67.1	67.1	88	63.4	0	0	---	0.00	30.030 
08:55	67.1	67.1	67.1	88	63.4	0	0	---	0.00	30.030 
09:00	67.1	67.1	67.1	88	63.4	0	0	---	0.00	30.031 
09:05	67.1	67.1	67.1	88	63.4	0	0	---	0.00	30.031 
09:10	67.3	67.3	67.3	88	63.6	0	0	---	0.00	30.031 
09:15	67.3	67.3	67.3	88	63.6	0	0	---	0.00	30.033 
09:20	67.4	67.4	67.4	88	63.7	0	1	90	0.00	30.033 
09:25	67.4	67.4	67.4	88	63.7	0	0	---	0.00	30.033 
09:30	67.6	67.6	67.6	88	63.9	0	0	---	0.00	30.034 
09:35	67.6	67.6	67.6	88	63.9	0	0	---	0.00	30.034 
09:40	67.8	67.8	67.8	88	64.1	0	0	---	0.00	30.034 
09:45	67.8	67.8	67.8	88	64.1	0	0	---	0.00	30.035 
09:50	67.8	67.8	67.8	87	63.8	0	1	90	0.00	30.035 
09:55	67.9	67.9	67.9	87	63.9	0	1	90	0.00	30.035 
10:00	67.9	67.9	67.9	87	63.9	0	0	---	0.00	30.035 
10:05	68.1	68.1	68.1	88	64.4	0	1	90	0.00	30.035 
10:10	68.3	68.3	68.3	88	64.6	0	2	90	0.00	30.035 
10:15	68.1	68.1	68.1	87	64.1	0	2	90	0.00	30.037 
10:20	68.3	68.3	68.3	87	64.3	0	1	90	0.00	30.037 
10:25	68.3	68.3	68.3	88	64.6	0	0	---	0.00	30.037 
10:30	68.4	68.4	68.4	87	64.4	0	1	90	0.00	30.040 
10:35	68.4	68.4	68.4	87	64.4	0	1	90	0.00	30.040 
10:40	68.6	68.6	68.6	88	64.9	0	1	90	0.00	30.040 
10:45	68.8	68.8	68.8	87	64.8	0	1	90	0.00	30.045 
10:50	68.9	68.9	68.9	87	64.9	0	1	90	0.00	30.045 
10:55	69.1	69.1	69.1	86	64.7	0	1	90	0.00	30.045 
11:00	69.3	69.3	69.3	86	64.9	0	1	90	0.00	30.050 
11:05	69.4	69.4	69.4	87	65.4	0	1	90	0.00	30.050 
11:10	69.6	69.6	69.6	86	65.2	0	0	---	0.00	30.050 
11:15	69.4	69.4	69.4	86	65.0	0	0	---	0.00	30.056 
11:20	69.6	69.6	69.6	86	65.2	0	0	---	0.00	30.056 
11:25	69.4	69.4	69.4	85	64.7	0	1	315	0.00	30.056 
11:30	69.6	69.6	69.6	86	65.2	0	0	---	0.00	30.060 
11:35	69.6	69.6	69.6	86	65.2	0	1	315	0.00	30.060 
11:40	69.8	69.8	69.8	86	65.4	0	1	315	0.00	30.060 
11:45	69.6	69.6	69.6	86	65.2	0	1	315	0.01	30.064 
11:50	69.6	69.6	69.6	87	65.6	0	1	315	0.00	30.064 
11:55	69.6	69.6	69.6	88	65.9	0	1	315	0.00	30.064 
12:00	69.6	69.6	69.6	88	65.9	0	1	315	0.00	30.060 
12:05	69.6	69.6	69.6	88	65.9	0	1	315	0.00	30.060 
12:10	69.6	69.6	69.6	88	65.9	0	2	315	0.00	30.060 
12:15	69.8	69.8	69.8	88	66.1	0	1	315	0.00	30.055 
12:20	69.9	69.9	69.9	88	66.2	0	1	248	0.00	30.055 
12:25	70.1	70.1	70.1	88	66.4	0	1	248	0.00	30.055 
12:30	70.3	70.3	70.3	88	66.6	0	1	248	0.00	30.052 
12:35	70.4	70.4	70.4	88	66.7	0	1	248	0.00	30.052 
12:40	70.6	70.6	70.6	88	66.9	0	1	248	0.00	30.052 
12:45	70.9	70.9	70.9	87	66.8	0	2	248	0.00	30.050 
12:50	71.3	71.3	71.3	87	67.2	0	0	---	0.00	30.050 
12:55	71.1	71.1	71.1	84	66.0	0	1	248	0.00	30.050 
13:00	71.1	71.1	71.1	83	65.7	0	1	248	0.00	30.049 
13:05	71.1	71.1	71.1	84	66.0	0	1	248	0.00	30.049 
13:10	71.1	71.1	71.1	84	66.0	0	0	---	0.00	30.049 
13:15	70.9	70.9	70.9	83	65.5	0	1	248	0.01	30.049 
13:20	70.9	70.9	70.9	83	65.5	0	1	248	0.00	30.049 
13:25	70.9	70.9	70.9	83	65.5	0	1	248	0.00	30.049 
13:30	70.9	70.9	70.9	83	65.5	0	1	248	0.00	30.045 
13:35	70.9	70.9	70.9	83	65.5	0	1	202	0.00	30.045 
13:40	71.3	71.3	71.3	83	65.9	0	1	112	0.00	30.045 
13:45	71.5	71.5	71.5	84	66.4	0	1	112	0.00	30.035 
13:50	71.6	71.6	71.6	83	66.2	0	0	---	0.00	30.035 
13:55	71.6	71.6	71.6	83	66.2	0	0	---	0.00	30.035 
14:00	71.5	71.5	71.5	82	65.7	0	1	112	0.00	30.033 
14:05	71.5	71.5	71.5	81	65.4	0	1	112	0.00	30.033 
14:10	71.6	71.6	71.6	82	65.8	0	0	---	0.00	30.033 
14:15	71.8	71.8	71.8	82	66.0	0	1	112	0.00	30.032 
14:20	71.8	71.8	71.8	81	65.6	0	0	---	0.00	30.032 
14:25	72.0	72.0	72.0	81	65.8	0	0	---	0.00	30.032 
14:30	72.0	72.0	72.0	81	65.8	0	0	---	0.00	30.029 
14:35	72.1	72.1	72.1	81	65.9	0	0	---	0.00	30.029 
14:40	72.1	72.1	72.1	81	65.9	0	1	112	0.00	30.029 
14:45	72.3	72.3	72.3	81	66.1	0	2	112	0.00	30.020 
14:50	72.7	72.7	72.7	81	66.5	0	0	---	0.00	30.020 
14:55	73.2	73.2	73.2	81	67.0	0	0	---	0.00	30.020 
15:00	73.5	73.5	73.5	81	67.3	0	0	---	0.00	30.021 
15:05	73.3	73.3	73.3	80	66.7	0	0	---	0.00	30.021 
15:10	73.3	73.3	73.3	79	66.4	0	1	112	0.00	30.021 
15:15	73.0	73.0	73.0	79	66.1	0	1	112	0.00	30.020 
15:20	73.2	73.2	73.2	79	66.3	0	1	112	0.00	30.020 
15:25	73.2	73.2	73.2	78	65.9	0	1	112	0.00	30.020 
15:30	73.2	73.2	73.2	78	65.9	0	1	112	0.00	30.017 
15:35	73.2	73.2	73.2	78	65.9	0	1	112	0.00	30.017 
15:40	73.2	73.2	73.2	78	65.9	0	1	112	0.00	30.017 
15:45	73.3	73.3	73.3	79	66.4	0	0	---	0.00	30.009 
15:50	73.5	73.5	73.5	78	66.2	0	1	112	0.00	30.009 
15:55	73.5	73.5	73.5	77	65.8	0	0	---	0.00	30.009 
16:00	73.5	73.5	73.5	77	65.8	0	0	---	0.00	30.003 
16:05	73.5	73.5	73.5	77	65.8	0	0	---	0.00	30.003 
16:10	73.5	73.5	73.5	76	65.5	0	0	---	0.00	30.003 
16:15	73.3	73.3	73.3	76	65.3	0	0	---	0.00	30.003 
16:20	73.3	73.3	73.3	77	65.6	0	0	---	0.00	30.003 
16:25	73.3	73.3	73.3	77	65.6	0	0	---	0.00	30.003 
16:30	73.5	73.5	73.5	77	65.8	0	0	---	0.00	29.994 
16:35	73.5	73.5	73.5	77	65.8	0	1	112	0.00	29.994 
16:40	73.9	73.9	73.9	77	66.2	0	0	---	0.00	29.994 
16:45	74.0	74.0	74.0	76	65.9	0	2	112	0.00	29.988 
16:50	74.2	74.2	74.2	76	66.1	0	1	112	0.00	29.988 
16:55	74.4	74.4	74.4	76	66.3	0	1	112	0.00	29.988 
17:00	74.7	74.7	74.7	76	66.6	0	0	---	0.00	29.988 
17:05	75.3	75.3	76.5	75	66.8	0	1	112	0.00	29.988 
17:10	75.8	75.8	77.3	73	66.5	0	2	112	0.00	29.988 
17:15	76.1	76.1	77.7	72	66.4	0	1	112	0.00	29.987 
17:20	76.3	76.3	77.9	71	66.2	0	1	112	0.00	29.987 
17:25	76.5	76.5	78.2	71	66.4	0	1	112	0.00	29.987 
17:30	76.5	76.5	78.1	72	66.8	0	1	112	0.00	29.986 
17:35	76.5	76.5	78.2	69	65.6	0	1	112	0.00	29.986 
17:40	76.7	76.7	78.4	69	65.7	0	2	112	0.00	29.986 
17:45	77.2	77.2	79.0	69	66.2	0	2	112	0.00	29.985 
17:50	77.9	77.9	79.8	67	66.0	0	1	112	0.00	29.985 
17:55	78.5	78.5	80.5	66	66.2	0	1	112	0.00	29.985 
18:00	78.5	78.5	80.4	65	65.7	0	2	112	0.00	29.981 
18:05	78.6	78.6	80.5	64	65.4	0	1	112	0.00	29.981 
18:10	78.6	78.6	80.5	64	65.4	0	2	112	0.00	29.981 
18:15	78.3	78.3	80.2	64	65.1	0	1	112	0.00	29.979 
18:20	78.1	78.1	80.0	65	65.4	0	1	112	0.00	29.979 
18:25	78.1	78.1	79.9	64	64.9	0	1	112	0.00	29.979 
18:30	77.9	77.9	79.7	65	65.2	0	0	---	0.00	29.978 
18:35	77.9	77.9	79.7	64	64.7	0	1	112	0.00	29.978 
18:40	77.7	77.7	79.4	61	63.2	0	3	112	0.00	29.978 
18:45	77.7	77.7	79.4	62	63.6	1	2	112	0.00	29.970 
18:50	77.7	77.7	79.4	62	63.6	0	2	112	0.00	29.970 
18:55	77.6	77.6	79.4	62	63.5	0	2	112	0.00	29.970 
19:00	77.6	77.6	79.4	62	63.5	0	1	112	0.00	29.968 
19:05	77.6	77.6	79.4	62	63.5	0	2	112	0.00	29.968 
19:10	77.4	77.4	79.2	64	64.2	0	1	112	0.00	29.968 
19:15	77.4	77.4	79.2	64	64.2	0	1	112	0.00	29.970 
19:20	77.2	77.2	79.0	64	64.1	0	0	---	0.00	29.970 
19:25	77.0	77.0	78.8	65	64.3	0	0	---	0.00	29.970 
19:30	76.8	76.8	78.6	66	64.6	0	1	112	0.00	29.973 
19:35	76.8	76.8	78.6	67	65.0	0	0	---	0.00	29.973 
19:40	76.8	76.8	78.6	68	65.4	0	0	---	0.00	29.973 
19:45	76.8	76.8	78.6	68	65.4	0	0	---	0.00	29.968 
19:50	76.7	76.7	78.5	68	65.3	0	0	---	0.00	29.968 
19:55	76.5	76.5	78.3	68	65.1	0	0	---	0.00	29.968 
20:00	76.3	76.3	78.0	68	64.9	0	1	112	0.00	29.972 
20:05	76.3	76.3	78.0	68	64.9	0	1	112	0.00	29.972 
20:10	76.3	76.3	78.0	68	64.9	0	0	---	0.00	29.972 
20:15	76.1	76.1	77.8	68	64.8	0	0	---	0.00	29.969 
20:20	76.1	76.1	77.8	69	65.2	0	0	---	0.00	29.969 
20:25	76.0	76.0	77.7	69	65.1	0	0	---	0.00	29.969 
20:30	75.8	75.8	77.5	69	64.9	0	0	---	0.00	29.969 
20:35	75.6	75.6	77.2	70	65.1	0	0	---	0.00	29.969 
20:40	75.4	75.4	77.1	70	64.9	0	0	---	0.00	29.969 
20:45	75.3	75.3	76.9	71	65.2	0	0	---	0.00	29.969 
20:50	75.1	75.1	76.7	71	65.0	0	0	---	0.00	29.969 
20:55	74.7	74.7	74.7	72	65.1	0	0	---	0.00	29.969 
21:00	74.4	74.4	74.4	73	65.2	0	0	---	0.00	29.969 
21:05	73.9	73.9	73.9	75	65.5	0	0	---	0.00	29.969 
21:10	73.5	73.5	73.5	76	65.5	0	0	---	0.00	29.969 
21:15	73.0	73.0	73.0	77	65.3	0	0	---	0.00	29.970 
21:20	72.8	72.8	72.8	78	65.5	0	0	---	0.00	29.970 
21:25	72.5	72.5	72.5	78	65.2	0	0	---	0.00	29.970 
21:30	72.1	72.1	72.1	79	65.2	0	0	---	0.00	29.969 
21:35	71.8	71.8	71.8	81	65.6	0	0	---	0.00	29.969 
21:40	71.6	71.6	71.6	81	65.4	0	0	---	0.00	29.969 
21:45	71.5	71.5	71.5	82	65.7	0	0	---	0.00	29.970 
21:50	71.3	71.3	71.3	82	65.5	0	0	---	0.00	29.970 
21:55	71.1	71.1	71.1	83	65.7	0	0	---	0.00	29.970 
22:00	71.1	71.1	71.1	84	66.0	0	0	---	0.00	29.975 
22:05	70.9	70.9	70.9	84	65.8	0	0	---	0.00	29.975 
22:10	70.9	70.9	70.9	84	65.8	0	0	---	0.00	29.975 
22:15	70.9	70.9	70.9	84	65.8	0	0	---	0.00	29.981 
22:20	71.1	71.1	71.1	84	66.0	0	0	---	0.00	29.981 
22:25	71.1	71.1	71.1	84	66.0	0	0	---	0.00	29.981 
22:30	71.1	71.1	71.1	84	66.0	0	0	---	0.00	29.978 
22:35	71.1	71.1	71.1	84	66.0	0	0	---	0.00	29.978 
22:40	71.1	71.1	71.1	85	66.4	0	0	---	0.00	29.978 
22:45	71.1	71.1	71.1	85	66.4	0	0	---	0.00	29.980 
22:50	71.1	71.1	71.1	85	66.4	0	0	---	0.00	29.980 
22:55	71.1	71.1	71.1	86	66.7	0	0	---	0.00	29.980 
23:00	71.1	71.1	71.1	86	66.7	0	0	---	0.00	29.975 
23:05	71.1	71.1	71.1	87	67.0	0	0	---	0.00	29.975 
23:10	71.3	71.3	71.3	87	67.2	0	0	---	0.00	29.975 
23:15	71.1	71.1	71.1	86	66.7	0	3	112	0.00	29.978 
23:20	71.3	71.3	71.3	86	66.9	0	1	112	0.00	29.978 
23:25	71.3	71.3	71.3	85	66.5	0	4	135	0.00	29.978 
23:30	71.3	71.3	71.3	85	66.5	0	0	---	0.00	29.981 
23:35	71.1	71.1	71.1	84	66.0	0	1	135	0.00	29.981 
23:40	71.1	71.1	71.1	84	66.0	0	1	135	0.00	29.981 
23:45	71.1	71.1	71.1	85	66.4	0	1	135	0.00	29.982 
23:50	71.1	71.1	71.1	85	66.4	0	1	135	0.00	29.982 
23:55	70.8	70.8	70.8	85	66.1	0	0	---	0.00	29.982 

CoCoRaHS
IN-AL-39
A2 Web Hosting
Creative Commons License
GoDaddy
search engine by freefind advanced

loaded 2018-11-17 05:49:36 • last modified 2010-11-18 10:43:29
Privacy PolicyDisclaimer
• wx.awcolley.com is powered by PmWiki v.2002016 •
• all content (unless otherwise noted) © 2018 A W Colley